Time;durP1;ratioP1;P1;durP2;ratioP2;P2;SDS_P1;SDS_P2;PMS_P1;PMS_P2;Temp;Humidity;BMP_temperature;BMP_pressure;BME280_temperature;BME280_humidity;BME280_pressure;Samples;Min_cycle;Max_cycle;Signal;HPM_P1;HPM_P2
2023/12/10 00:01:14;;;;;;;10.10;4.50;;;;;;;-3.06;80.13;98914.20;105462;1257;61375;-28
2023/12/10 00:03:42;;;;;;;8.00;4.90;;;;;;;-2.77;80.21;98914.06;105466;1260;61218;-28
2023/12/10 00:06:09;;;;;;;9.10;5.10;;;;;;;-2.35;78.42;98914.02;105428;1257;72908;-28
2023/12/10 00:08:41;;;;;;;7.90;5.10;;;;;;;-2.37;77.94;98908.14;105397;1260;74194;-28
2023/12/10 00:11:08;;;;;;;8.10;5.30;;;;;;;-2.66;78.94;98902.20;105565;1260;72358;-28
2023/12/10 00:13:35;;;;;;;12.00;7.10;;;;;;;-3.00;79.95;98906.73;105507;1260;60992;-28
2023/12/10 00:16:03;;;;;;;11.50;6.30;;;;;;;-3.22;81.00;98917.55;105242;1268;61084;-28
2023/12/10 00:18:30;;;;;;;5.90;4.10;;;;;;;-2.98;80.63;98916.36;105602;1257;73033;-28
2023/12/10 00:20:58;;;;;;;6.30;3.50;;;;;;;-2.65;79.34;98915.27;105406;1260;74113;-28
2023/12/10 00:23:25;;;;;;;9.80;4.10;;;;;;;-2.65;78.46;98913.23;105383;1260;72614;-28
2023/12/10 00:25:52;;;;;;;6.80;4.60;;;;;;;-2.83;79.02;98909.14;105301;1258;61064;-28
2023/12/10 00:28:19;;;;;;;10.40;4.10;;;;;;;-2.98;79.59;98906.67;105353;1260;61131;-28
2023/12/10 00:30:47;;;;;;;9.00;4.80;;;;;;;-3.12;80.10;98905.53;105386;1258;73066;-28
2023/12/10 00:33:15;;;;;;;6.90;3.50;;;;;;;-3.10;80.64;98897.00;105456;1261;74217;-28
2023/12/10 00:35:43;;;;;;;5.60;3.90;;;;;;;-2.63;79.20;98895.82;105608;1258;72815;-28
2023/12/10 00:38:10;;;;;;;7.20;4.30;;;;;;;-2.51;78.17;98891.71;105462;1258;60994;-28
2023/12/10 00:40:37;;;;;;;10.40;5.90;;;;;;;-2.68;78.42;98887.99;105365;1261;61100;-28
2023/12/10 00:43:05;;;;;;;8.50;5.00;;;;;;;-2.95;79.34;98884.66;105305;1258;73014;-28
2023/12/10 00:45:32;;;;;;;8.20;4.70;;;;;;;-3.21;79.91;98885.75;105646;1257;73355;-27
2023/12/10 00:47:59;;;;;;;4.40;3.90;;;;;;;-3.41;80.57;98892.25;105599;1257;71442;-28
2023/12/10 00:50:26;;;;;;;7.70;5.20;;;;;;;-2.96;79.97;98894.39;105574;1257;61234;-28
2023/12/10 00:52:53;;;;;;;10.80;4.30;;;;;;;-2.70;78.38;98888.04;105633;1260;61723;-28
2023/12/10 00:55:21;;;;;;;4.90;3.30;;;;;;;-2.78;78.13;98883.70;105486;1257;73016;-28
2023/12/10 00:57:48;;;;;;;5.30;3.30;;;;;;;-3.01;78.64;98879.08;105359;1258;73849;-28
2023/12/10 01:00:17;;;;;;;6.50;4.60;;;;;;;-3.24;79.33;98879.55;105508;1258;72424;-29
2023/12/10 01:02:44;;;;;;;8.60;4.90;;;;;;;-3.42;80.00;98881.56;105306;1263;61266;-28
2023/12/10 01:05:11;;;;;;;5.80;3.70;;;;;;;-3.48;80.65;98881.05;105634;1262;61173;-28
2023/12/10 01:07:38;;;;;;;2.70;2.30;;;;;;;-2.81;79.52;98877.66;105463;1258;72907;-28
2023/12/10 01:10:05;;;;;;;5.10;3.90;;;;;;;-2.47;77.13;98872.40;105598;1258;74341;-28
2023/12/10 01:12:36;;;;;;;9.70;5.50;;;;;;;-2.64;76.97;98869.15;105431;1257;72614;-28
2023/12/10 01:15:08;;;;;;;9.90;4.50;;;;;;;-2.95;77.36;98873.63;105329;1260;61074;-28
2023/12/10 01:17:35;;;;;;;4.20;3.00;;;;;;;-3.32;78.30;98872.97;105389;1263;61733;-28
2023/12/10 01:20:03;;;;;;;11.00;5.20;;;;;;;-3.61;79.54;98866.29;105422;1257;73535;-28
2023/12/10 01:22:31;;;;;;;11.40;6.30;;;;;;;-3.87;81.06;98853.88;105473;1261;74407;-28
2023/12/10 01:24:58;;;;;;;8.40;4.90;;;;;;;-3.54;80.47;98859.48;105487;1258;72993;-27
2023/12/10 01:27:25;;;;;;;11.10;4.50;;;;;;;-3.40;79.85;98860.47;105459;1256;61133;-28
2023/12/10 01:29:52;;;;;;;5.90;4.10;;;;;;;-3.46;79.72;98862.33;105447;1258;61156;-28
2023/12/10 01:32:20;;;;;;;10.10;5.00;;;;;;;-3.67;80.16;98858.13;105511;1257;72839;-28
2023/12/10 01:34:47;;;;;;;13.90;5.50;;;;;;;-3.91;81.28;98856.86;105615;1260;74319;-28
2023/12/10 01:37:15;;;;;;;11.10;5.90;;;;;;;-3.76;81.73;98854.29;105639;1258;72679;-28
2023/12/10 01:39:42;;;;;;;7.20;4.40;;;;;;;-3.18;80.10;98852.88;105613;1257;61153;-28
2023/12/10 01:42:09;;;;;;;9.40;5.90;;;;;;;-3.05;78.90;98850.65;105590;1261;61543;-28
2023/12/10 01:44:36;;;;;;;6.10;4.00;;;;;;;-3.30;78.85;98837.10;105657;1254;72812;-28
2023/12/10 01:47:04;;;;;;;5.50;3.70;;;;;;;-3.54;79.50;98838.27;105651;1254;74262;-27
2023/12/10 01:49:31;;;;;;;8.90;5.30;;;;;;;-3.79;80.10;98835.52;105678;1256;71533;-27
2023/12/10 01:51:58;;;;;;;6.80;4.40;;;;;;;-4.02;81.11;98836.45;105610;1254;61042;-27
2023/12/10 01:54:25;;;;;;;5.40;3.90;;;;;;;-3.74;80.89;98837.91;105673;1259;61156;-28
2023/12/10 01:56:52;;;;;;;6.20;3.00;;;;;;;-3.27;79.44;98825.30;105626;1260;73073;-27
2023/12/10 01:59:35;;;;;;;8.50;5.70;;;;;;;-3.23;78.86;98821.95;105239;1254;74372;-27
2023/12/10 02:02:02;;;;;;;5.90;3.80;;;;;;;-3.43;79.04;98819.47;105279;1254;72682;-27
2023/12/10 02:04:30;;;;;;;7.90;4.20;;;;;;;-3.74;80.03;98819.95;105487;1254;61075;-27
2023/12/10 02:06:57;;;;;;;13.10;6.00;;;;;;;-3.96;80.85;98820.53;105576;1254;61095;-27
2023/12/10 02:09:24;;;;;;;5.10;3.20;;;;;;;-4.09;81.93;98820.85;105540;1254;73692;-27
2023/12/10 02:11:52;;;;;;;9.30;5.90;;;;;;;-3.59;80.55;98822.27;105575;1257;74174;-27
2023/12/10 02:14:19;;;;;;;11.10;6.50;;;;;;;-3.44;79.76;98822.55;105659;1254;71438;-27
2023/12/10 02:16:46;;;;;;;11.30;5.80;;;;;;;-3.62;79.69;98823.89;105619;1255;61163;-27
2023/12/10 02:19:13;;;;;;;9.30;3.80;;;;;;;-3.96;80.74;98815.60;105615;1261;61067;-27
2023/12/10 02:21:41;;;;;;;7.50;4.90;;;;;;;-4.19;81.29;98821.11;105622;1255;73785;-27
2023/12/10 02:24:10;;;;;;;7.10;4.20;;;;;;;-4.30;81.89;98818.30;105502;1254;74973;-27
2023/12/10 02:26:37;;;;;;;7.40;4.40;;;;;;;-3.93;80.99;98812.31;105608;1254;72560;-27
2023/12/10 02:29:04;;;;;;;6.60;4.60;;;;;;;-3.89;80.75;98816.96;105649;1254;61075;-27
2023/12/10 02:31:31;;;;;;;4.30;2.50;;;;;;;-3.94;80.72;98824.88;105651;1254;61055;-27
2023/12/10 02:33:58;;;;;;;6.60;3.10;;;;;;;-4.11;81.16;98833.13;105604;1254;74284;-28
2023/12/10 02:36:26;;;;;;;8.50;4.30;;;;;;;-4.36;82.25;98833.55;105303;1254;73138;-27
2023/12/10 02:38:54;;;;;;;9.40;4.20;;;;;;;-4.17;82.46;98828.83;105574;1254;73060;-27
2023/12/10 02:41:21;;;;;;;5.80;3.50;;;;;;;-3.67;80.40;98831.99;105445;1254;62134;-27
2023/12/10 02:43:48;;;;;;;6.20;3.80;;;;;;;-3.56;79.38;98834.59;105505;1254;61111;-27
2023/12/10 02:46:15;;;;;;;5.00;3.00;;;;;;;-3.63;79.34;98834.76;105595;1254;73802;-27
2023/12/10 02:48:42;;;;;;;9.00;4.80;;;;;;;-3.80;79.68;98825.72;105542;1254;72543;-27
2023/12/10 02:51:09;;;;;;;10.10;5.10;;;;;;;-4.08;80.57;98821.52;105666;1254;72746;-27
2023/12/10 02:53:36;;;;;;;6.10;3.60;;;;;;;-4.26;81.89;98821.28;105625;1254;61840;-27
2023/12/10 02:56:04;;;;;;;6.80;4.20;;;;;;;-3.68;80.53;98820.29;105790;1257;61189;-27
2023/12/10 02:58:31;;;;;;;9.00;4.90;;;;;;;-3.39;79.16;98819.00;105777;1254;72560;-27
2023/12/10 03:00:59;;;;;;;8.50;4.60;;;;;;;-3.56;78.96;98819.30;105877;1254;74282;-27
2023/12/10 03:03:26;;;;;;;13.60;6.40;;;;;;;-3.87;80.06;98819.45;105888;1254;73216;-27
2023/12/10 03:05:53;;;;;;;9.20;5.30;;;;;;;-4.13;81.07;98827.56;105905;1252;61096;-27
2023/12/10 03:08:20;;;;;;;5.90;3.70;;;;;;;-4.38;82.29;98827.31;105878;1256;61153;-27
2023/12/10 03:10:47;;;;;;;9.10;4.00;;;;;;;-3.96;82.01;98827.82;105682;1254;73687;-27
2023/12/10 03:13:14;;;;;;;7.30;4.30;;;;;;;-3.43;80.19;98830.16;105833;1255;74280;-27
2023/12/10 03:15:41;;;;;;;5.70;3.60;;;;;;;-3.47;78.94;98827.55;105795;1253;72666;-27
2023/12/10 03:18:08;;;;;;;4.60;3.10;;;;;;;-3.60;79.34;98832.84;105838;1252;61031;-27
2023/12/10 03:20:36;;;;;;;9.40;5.20;;;;;;;-3.80;79.70;98834.19;105550;1252;61214;-27
2023/12/10 03:23:03;;;;;;;10.50;4.80;;;;;;;-4.14;80.55;98836.92;105705;1254;73676;-27
2023/12/10 03:25:30;;;;;;;6.30;4.10;;;;;;;-4.22;81.21;98835.23;105798;1256;74172;-27
2023/12/10 03:27:57;;;;;;;7.90;3.50;;;;;;;-3.84;80.39;98828.53;105898;1254;72520;-27
2023/12/10 03:30:24;;;;;;;5.20;3.80;;;;;;;-3.71;79.58;98824.12;105665;1257;61093;-27
2023/12/10 03:32:51;;;;;;;7.10;5.90;;;;;;;-3.85;79.59;98828.89;105869;1257;62952;-28
2023/12/10 03:35:18;;;;;;;10.00;4.00;;;;;;;-4.00;80.26;98831.16;105814;1254;73901;-27
2023/12/10 03:37:46;;;;;;;7.50;4.30;;;;;;;-4.17;80.65;98830.56;105809;1257;74175;-27
2023/12/10 03:40:13;;;;;;;5.80;3.40;;;;;;;-4.33;81.08;98830.94;105886;1254;72670;-27
2023/12/10 03:42:40;;;;;;;9.70;4.50;;;;;;;-4.46;82.11;98835.31;105737;1254;62044;-27
2023/12/10 03:45:07;;;;;;;12.30;4.00;;;;;;;-3.79;81.10;98833.48;105871;1256;61090;-27
2023/12/10 03:47:34;;;;;;;12.10;4.90;;;;;;;-3.23;78.95;98828.73;105679;1259;73643;-27
2023/12/10 03:50:06;;;;;;;6.90;4.10;;;;;;;-3.25;77.93;98822.52;105894;1254;74026;-27
2023/12/10 03:52:33;;;;;;;11.10;5.00;;;;;;;-3.48;78.14;98824.35;105844;1253;72596;-27
2023/12/10 03:55:00;;;;;;;9.40;5.80;;;;;;;-3.75;78.97;98820.33;105923;1253;61052;-27
2023/12/10 03:57:27;;;;;;;11.80;6.10;;;;;;;-4.02;79.82;98806.11;105789;1257;61092;-28
2023/12/10 03:59:54;;;;;;;11.90;4.60;;;;;;;-4.32;80.94;98806.16;105695;1253;73790;-27
2023/12/10 04:02:21;;;;;;;8.10;4.20;;;;;;;-4.24;81.30;98808.52;105831;1254;74276;-27
2023/12/10 04:04:48;;;;;;;5.90;3.60;;;;;;;-3.75;79.81;98812.86;105583;1254;73156;-28
2023/12/10 04:07:15;;;;;;;11.60;6.60;;;;;;;-3.67;78.75;98814.01;105484;1253;61035;-27
2023/12/10 04:09:42;;;;;;;8.20;4.50;;;;;;;-3.90;78.73;98819.37;105604;1256;61112;-27
2023/12/10 04:12:09;;;;;;;6.00;4.20;;;;;;;-4.21;79.88;98823.85;105947;1252;73805;-27
2023/12/10 04:14:37;;;;;;;8.20;4.50;;;;;;;-4.50;80.85;98822.36;105870;1254;74880;-27
2023/12/10 04:17:04;;;;;;;4.10;2.60;;;;;;;-4.74;81.91;98823.91;105900;1254;72516;-27
2023/12/10 04:19:31;;;;;;;11.70;5.30;;;;;;;-4.50;82.24;98820.14;105947;1254;61045;-27
2023/12/10 04:21:59;;;;;;;8.70;4.70;;;;;;;-3.92;80.15;98823.48;105889;1252;61115;-27
2023/12/10 04:24:26;;;;;;;12.70;5.50;;;;;;;-3.89;79.35;98823.05;105923;1254;73991;-28
2023/12/10 04:26:53;;;;;;;8.40;3.70;;;;;;;-4.11;79.49;98832.11;105861;1254;74452;-27
2023/12/10 04:29:20;;;;;;;6.30;2.80;;;;;;;-4.34;80.60;98846.39;105609;1254;73173;-27
2023/12/10 04:31:47;;;;;;;7.10;4.10;;;;;;;-4.57;81.11;98854.54;105647;1252;60985;-27
2023/12/10 04:34:14;;;;;;;4.70;2.50;;;;;;;-4.76;82.49;98864.94;105696;1256;61157;-27
2023/12/10 04:36:41;;;;;;;8.20;3.80;;;;;;;-4.19;81.18;98864.67;105908;1253;73825;-27
2023/12/10 04:39:08;;;;;;;4.10;2.50;;;;;;;-3.96;79.93;98848.68;105899;1256;74346;-27
2023/12/10 04:41:36;;;;;;;4.20;2.80;;;;;;;-4.03;79.81;98845.63;105847;1254;73069;-27
2023/12/10 04:44:03;;;;;;;8.80;4.20;;;;;;;-4.29;80.33;98838.46;105700;1252;61131;-27
2023/12/10 04:46:30;;;;;;;6.90;3.50;;;;;;;-4.61;81.48;98838.02;105770;1252;61070;-27
2023/12/10 04:48:57;;;;;;;5.50;3.50;;;;;;;-4.80;82.57;98828.61;105582;1254;73897;-27
2023/12/10 04:51:24;;;;;;;3.20;2.50;;;;;;;-4.40;82.17;98819.91;105792;1257;74536;-27
2023/12/10 04:53:51;;;;;;;5.40;2.70;;;;;;;-4.21;80.96;98820.64;105955;1254;72297;-28
2023/12/10 04:56:18;;;;;;;6.70;4.00;;;;;;;-4.31;80.74;98824.30;105839;1253;61079;-27
2023/12/10 04:58:45;;;;;;;7.10;4.10;;;;;;;-4.52;81.66;98825.63;105909;1257;61105;-27
2023/12/10 05:01:12;;;;;;;6.80;4.60;;;;;;;-4.68;82.21;98823.45;105752;1254;74384;-27
2023/12/10 05:03:40;;;;;;;3.40;2.10;;;;;;;-4.72;82.81;98822.16;105676;1257;74327;-27
2023/12/10 05:06:08;;;;;;;11.80;5.80;;;;;;;-4.18;81.21;98817.16;105805;1253;72754;-27
2023/12/10 05:08:35;;;;;;;8.10;5.00;;;;;;;-4.04;80.37;98810.22;105726;1254;61266;-27
2023/12/10 05:11:03;;;;;;;8.10;4.60;;;;;;;-4.16;80.49;98798.48;105808;1254;61256;-27
2023/12/10 05:13:31;;;;;;;3.80;2.70;;;;;;;-4.38;81.06;98797.84;105781;1254;73816;-27
2023/12/10 05:15:58;;;;;;;3.30;2.70;;;;;;;-4.61;82.15;98795.34;105705;1254;74333;-27
2023/12/10 05:18:25;;;;;;;3.40;2.00;;;;;;;-4.78;82.93;98803.15;105902;1253;72524;-27
2023/12/10 05:20:52;;;;;;;3.80;2.50;;;;;;;-4.19;81.83;98803.80;105682;1254;61106;-27
2023/12/10 05:23:20;;;;;;;4.80;2.80;;;;;;;-3.75;79.80;98813.88;105612;1257;61204;-27
2023/12/10 05:25:47;;;;;;;5.80;3.40;;;;;;;-3.67;78.99;98819.27;105613;1254;73670;-27
2023/12/10 05:28:14;;;;;;;7.60;3.00;;;;;;;-3.84;79.23;98817.66;105906;1254;74195;-27
2023/12/10 05:30:41;;;;;;;9.60;4.10;;;;;;;-4.03;79.76;98820.05;105893;1254;72613;-27
2023/12/10 05:33:08;;;;;;;6.50;3.30;;;;;;;-4.22;80.37;98827.96;105617;1252;61231;-28
2023/12/10 05:35:36;;;;;;;7.10;3.00;;;;;;;-4.47;81.45;98829.06;105598;1257;61141;-27
2023/12/10 05:38:03;;;;;;;3.70;2.50;;;;;;;-4.12;81.13;98831.94;105705;1254;73948;-27
2023/12/10 05:40:30;;;;;;;5.00;2.70;;;;;;;-3.78;79.78;98829.06;105574;1256;74358;-27
2023/12/10 05:42:57;;;;;;;6.30;3.90;;;;;;;-3.87;79.95;98831.32;105554;1254;73143;-28
2023/12/10 05:45:24;;;;;;;4.50;2.70;;;;;;;-4.06;80.34;98836.20;105635;1253;61168;-27
2023/12/10 05:47:51;;;;;;;6.50;3.70;;;;;;;-4.27;80.98;98830.95;105748;1257;62540;-27
2023/12/10 05:50:19;;;;;;;2.10;1.60;;;;;;;-4.55;82.07;98831.95;105960;1254;73865;-27
2023/12/10 05:52:46;;;;;;;7.70;4.40;;;;;;;-4.30;82.25;98834.59;105648;1254;74764;-27
2023/12/10 05:55:13;;;;;;;5.10;2.70;;;;;;;-3.96;81.17;98825.61;105851;1254;72662;-27
2023/12/10 05:57:40;;;;;;;7.80;4.00;;;;;;;-3.98;80.58;98819.38;105759;1254;62159;-27
2023/12/10 06:00:08;;;;;;;3.70;2.50;;;;;;;-4.12;81.12;98824.48;105531;1257;61089;-27
2023/12/10 06:02:35;;;;;;;6.50;3.90;;;;;;;-4.33;81.74;98829.75;105499;1254;73998;-27
2023/12/10 06:05:03;;;;;;;3.40;2.20;;;;;;;-4.40;82.34;98831.11;105622;1256;74278;-27
2023/12/10 06:07:30;;;;;;;4.30;2.10;;;;;;;-3.87;81.32;98823.52;105808;1255;71477;-27
2023/12/10 06:09:57;;;;;;;6.30;3.10;;;;;;;-3.55;79.86;98820.30;105817;1254;61051;-27
2023/12/10 06:12:24;;;;;;;9.50;4.60;;;;;;;-3.54;79.13;98809.41;105556;1258;61073;-27
2023/12/10 06:14:52;;;;;;;6.30;3.70;;;;;;;-3.76;79.85;98802.38;105897;1254;73395;-28
2023/12/10 06:17:19;;;;;;;7.20;4.10;;;;;;;-4.07;80.89;98806.55;105865;1254;74352;-27
2023/12/10 06:19:46;;;;;;;7.50;3.30;;;;;;;-4.31;82.13;98808.52;105582;1254;73306;-27
2023/12/10 06:22:13;;;;;;;5.90;3.00;;;;;;;-3.94;81.82;98804.00;105750;1252;61025;-27
2023/12/10 06:24:40;;;;;;;3.70;3.10;;;;;;;-3.46;79.85;98807.31;105916;1257;61096;-27
2023/12/10 06:27:07;;;;;;;4.20;3.00;;;;;;;-3.43;79.14;98806.56;105806;1255;73800;-27
2023/12/10 06:29:34;;;;;;;9.20;5.00;;;;;;;-3.65;79.61;98806.16;105917;1254;74086;-27
2023/12/10 06:32:01;;;;;;;6.50;3.70;;;;;;;-3.98;80.39;98802.95;105782;1254;72729;-27
2023/12/10 06:34:29;;;;;;;7.60;4.90;;;;;;;-4.22;81.38;98798.79;105930;1254;61265;-27
2023/12/10 06:36:56;;;;;;;10.50;4.50;;;;;;;-4.18;82.03;98793.27;105481;1256;61624;-27
2023/12/10 06:39:23;;;;;;;7.20;4.40;;;;;;;-3.77;80.69;98794.91;105765;1256;73932;-27
2023/12/10 06:41:51;;;;;;;5.70;3.60;;;;;;;-3.67;79.93;98812.82;105866;1254;74779;-27
2023/12/10 06:44:21;;;;;;;7.10;4.10;;;;;;;-3.80;80.32;98817.05;105621;1253;72623;-27
2023/12/10 06:46:49;;;;;;;9.70;4.10;;;;;;;-3.97;80.93;98815.98;105701;1254;61052;-27
2023/12/10 06:49:16;;;;;;;7.20;3.70;;;;;;;-4.16;81.64;98813.58;105558;1257;61793;-27
2023/12/10 06:51:43;;;;;;;10.60;4.30;;;;;;;-4.07;82.22;98811.32;105795;1254;73654;-27
2023/12/10 06:54:11;;;;;;;9.60;5.20;;;;;;;-3.53;80.69;98806.14;105848;1254;74300;-27
2023/12/10 06:56:40;;;;;;;6.50;3.10;;;;;;;-3.38;79.56;98808.63;105699;1254;72532;-27
2023/12/10 06:59:08;;;;;;;4.40;2.30;;;;;;;-3.56;79.39;98801.67;105520;1254;62649;-27
2023/12/10 07:01:37;;;;;;;4.60;3.00;;;;;;;-3.76;80.26;98806.60;105654;1254;61093;-27
2023/12/10 07:04:07;;;;;;;6.90;2.80;;;;;;;-4.02;81.25;98803.70;105740;1256;72462;-28
2023/12/10 07:06:35;;;;;;;5.40;3.80;;;;;;;-4.06;82.18;98819.92;105666;1254;74390;-28
2023/12/10 07:09:03;;;;;;;4.90;2.90;;;;;;;-3.49;80.74;98820.66;105448;1253;72766;-28
2023/12/10 07:11:31;;;;;;;5.00;2.90;;;;;;;-3.28;79.59;98814.63;105740;1254;61073;-27
2023/12/10 07:13:58;;;;;;;2.50;2.20;;;;;;;-3.40;79.36;98812.93;105661;1256;61196;-28
2023/12/10 07:16:25;;;;;;;4.90;3.50;;;;;;;-3.62;79.80;98805.73;105815;1254;73813;-28
2023/12/10 07:18:52;;;;;;;7.20;3.80;;;;;;;-3.81;80.42;98810.12;105867;1254;73177;-28
2023/12/10 07:21:20;;;;;;;7.10;3.40;;;;;;;-4.06;81.57;98804.00;105766;1254;73000;-27
2023/12/10 07:23:47;;;;;;;4.40;2.60;;;;;;;-3.77;81.61;98813.92;105853;1252;61047;-28
2023/12/10 07:26:20;;;;;;;6.40;3.70;;;;;;;-3.19;79.67;98807.94;105813;1256;61500;-28
2023/12/10 07:28:47;;;;;;;6.10;3.30;;;;;;;-3.12;78.62;98802.30;105533;1254;73724;-28
2023/12/10 07:31:14;;;;;;;8.00;4.70;;;;;;;-3.32;79.04;98795.38;105819;1257;74750;-28
2023/12/10 07:33:41;;;;;;;8.80;4.80;;;;;;;-3.46;79.36;98798.31;105912;1256;72354;-28
2023/12/10 07:36:09;;;;;;;6.20;3.90;;;;;;;-3.61;80.00;98792.45;105579;1254;61139;-28
2023/12/10 07:38:36;;;;;;;4.70;2.80;;;;;;;-3.80;80.43;98796.20;105720;1252;61100;-28
2023/12/10 07:41:04;;;;;;;5.30;2.90;;;;;;;-3.75;80.70;98797.42;105692;1254;73909;-28
2023/12/10 07:43:31;;;;;;;5.90;3.90;;;;;;;-3.19;79.44;98807.59;105782;1252;74064;-28
2023/12/10 07:45:58;;;;;;;5.40;3.00;;;;;;;-3.15;78.39;98802.71;105573;1254;71550;-28
2023/12/10 07:48:26;;;;;;;6.10;4.00;;;;;;;-3.44;78.64;98792.50;105733;1254;60974;-27
2023/12/10 07:50:54;;;;;;;8.40;4.30;;;;;;;-3.65;79.45;98791.89;105882;1256;61107;-28
2023/12/10 07:53:21;;;;;;;7.10;4.30;;;;;;;-3.88;79.97;98790.30;105903;1253;73714;-27
2023/12/10 07:55:48;;;;;;;9.00;3.80;;;;;;;-4.06;81.32;98785.67;105685;1254;74305;-27
2023/12/10 07:58:15;;;;;;;9.40;4.20;;;;;;;-3.70;80.57;98793.03;105893;1253;72611;-27
2023/12/10 08:00:46;;;;;;;7.30;4.10;;;;;;;-3.56;79.80;98787.74;105764;1254;61128;-28
2023/12/10 08:03:14;;;;;;;5.00;3.40;;;;;;;-3.74;80.23;98800.93;105569;1256;61086;-28
2023/12/10 08:05:42;;;;;;;4.00;2.90;;;;;;;-3.88;80.78;98803.02;105600;1254;74360;-27
2023/12/10 08:08:08;;;;;;;4.10;2.80;;;;;;;-4.01;81.27;98809.64;105853;1256;74371;-27
2023/12/10 08:10:36;;;;;;;4.50;2.70;;;;;;;-3.99;81.73;98807.70;105795;1256;72296;-28
2023/12/10 08:13:03;;;;;;;5.40;3.10;;;;;;;-3.45;80.35;98811.88;105719;1253;61100;-27
2023/12/10 08:15:30;;;;;;;7.10;4.10;;;;;;;-3.28;79.17;98814.80;105729;1254;61138;-27
2023/12/10 08:17:57;;;;;;;6.30;2.40;;;;;;;-3.40;79.36;98808.69;105688;1254;73671;-27
2023/12/10 08:20:25;;;;;;;5.70;3.70;;;;;;;-3.47;79.67;98805.81;105693;1257;74477;-27
2023/12/10 08:22:53;;;;;;;4.60;2.70;;;;;;;-3.70;80.43;98808.14;105724;1254;73179;-27
2023/12/10 08:25:20;;;;;;;6.60;3.30;;;;;;;-3.50;80.48;98811.99;105810;1254;61166;-27
2023/12/10 08:27:47;;;;;;;7.10;3.50;;;;;;;-3.01;78.81;98818.27;105748;1252;61106;-27
2023/12/10 08:30:14;;;;;;;4.80;2.70;;;;;;;-3.03;77.98;98822.55;105643;1254;73911;-28
2023/12/10 08:32:42;;;;;;;4.70;3.10;;;;;;;-3.27;78.54;98821.56;105687;1254;74774;-27
2023/12/10 08:35:09;;;;;;;7.40;3.40;;;;;;;-3.48;79.49;98819.61;105722;1254;72714;-27
2023/12/10 08:37:36;;;;;;;5.70;3.50;;;;;;;-3.75;80.30;98825.77;105758;1254;61055;-27
2023/12/10 08:40:04;;;;;;;6.00;4.20;;;;;;;-3.64;80.91;98821.73;105723;1256;61195;-27
2023/12/10 08:42:32;;;;;;;4.50;2.70;;;;;;;-3.10;79.40;98821.25;105737;1259;73911;-27
2023/12/10 08:44:59;;;;;;;9.00;4.20;;;;;;;-3.08;78.45;98810.30;105768;1254;74527;-27
2023/12/10 08:47:26;;;;;;;5.70;3.40;;;;;;;-3.24;78.78;98811.81;105921;1254;71609;-27
2023/12/10 08:49:54;;;;;;;7.70;4.60;;;;;;;-3.42;79.58;98810.09;105694;1252;62295;-27
2023/12/10 08:52:23;;;;;;;8.30;4.50;;;;;;;-3.62;80.24;98801.48;105714;1254;61058;-27
2023/12/10 08:54:50;;;;;;;7.40;4.20;;;;;;;-3.72;81.22;98801.42;105743;1254;73825;-27
2023/12/10 08:57:18;;;;;;;4.90;3.20;;;;;;;-3.28;79.98;98800.88;105911;1254;73334;-29
2023/12/10 08:59:45;;;;;;;6.50;3.40;;;;;;;-3.17;79.14;98800.73;105911;1256;72623;-27
2023/12/10 09:02:12;;;;;;;3.30;2.50;;;;;;;-3.29;79.06;98802.09;105850;1254;61052;-27
2023/12/10 09:04:39;;;;;;;5.10;2.80;;;;;;;-3.41;79.41;98798.86;105880;1257;61073;-27
2023/12/10 09:07:06;;;;;;;3.50;2.30;;;;;;;-3.66;80.28;98789.72;105866;1254;73833;-27
2023/12/10 09:09:33;;;;;;;8.50;2.70;;;;;;;-3.67;81.24;98793.30;105888;1254;74160;-27
2023/12/10 09:12:00;;;;;;;5.20;2.00;;;;;;;-3.12;79.67;98793.46;105927;1254;72641;-27
2023/12/10 09:14:28;;;;;;;4.30;2.60;;;;;;;-3.03;78.84;98788.92;105946;1254;61159;-27
2023/12/10 09:16:55;;;;;;;4.60;2.70;;;;;;;-3.14;78.78;98791.14;105676;1252;61183;-27
2023/12/10 09:19:23;;;;;;;6.00;2.50;;;;;;;-3.34;79.17;98789.14;105581;1254;73929;-27
2023/12/10 09:21:50;;;;;;;3.90;2.80;;;;;;;-3.56;80.13;98788.58;105695;1254;74368;-27
2023/12/10 09:24:18;;;;;;;5.80;3.00;;;;;;;-3.47;80.67;98789.52;105801;1253;72693;-27
2023/12/10 09:26:45;;;;;;;5.60;3.50;;;;;;;-2.96;79.12;98789.92;105731;1254;61081;-27
2023/12/10 09:29:13;;;;;;;4.80;2.90;;;;;;;-2.88;78.27;98786.63;105585;1254;61061;-27
2023/12/10 09:31:40;;;;;;;5.60;2.60;;;;;;;-2.91;78.52;98795.89;105723;1254;73856;-27
2023/12/10 09:34:09;;;;;;;4.60;2.80;;;;;;;-3.09;78.99;98789.79;105712;1254;74312;-27
2023/12/10 09:36:36;;;;;;;5.30;3.40;;;;;;;-3.33;79.74;98792.36;105757;1253;72566;-27
2023/12/10 09:39:04;;;;;;;6.60;3.30;;;;;;;-3.38;80.34;98801.15;105761;1255;61131;-27
2023/12/10 09:41:31;;;;;;;5.70;3.10;;;;;;;-2.86;79.05;98807.64;105806;1252;61173;-27
2023/12/10 09:43:58;;;;;;;4.40;2.90;;;;;;;-2.74;77.97;98806.91;105710;1257;73581;-27
2023/12/10 09:46:25;;;;;;;7.60;3.40;;;;;;;-2.82;78.09;98805.64;105765;1254;74409;-27
2023/12/10 09:48:52;;;;;;;4.80;2.40;;;;;;;-2.91;78.41;98807.44;105635;1254;72739;-27
2023/12/10 09:51:19;;;;;;;5.00;3.30;;;;;;;-3.07;78.47;98810.11;105575;1254;61109;-27
2023/12/10 09:53:47;;;;;;;5.50;3.70;;;;;;;-3.46;79.60;98804.44;105528;1257;61160;-27
2023/12/10 09:56:14;;;;;;;4.70;3.20;;;;;;;-3.14;79.12;98807.11;105886;1254;72607;-27
2023/12/10 09:58:40;;;;;;;3.90;2.50;;;;;;;-2.85;78.09;98810.50;105946;1254;74275;-27
2023/12/10 10:01:08;;;;;;;4.10;2.80;;;;;;;-2.94;77.91;98803.95;105596;1253;72303;-27
2023/12/10 10:03:36;;;;;;;6.20;4.10;;;;;;;-3.06;78.50;98806.70;105835;1254;61166;-27
2023/12/10 10:06:03;;;;;;;3.60;2.10;;;;;;;-3.25;78.66;98804.19;105694;1252;61573;-27
2023/12/10 10:08:30;;;;;;;2.80;1.90;;;;;;;-3.44;79.55;98801.16;105935;1254;73584;-27
2023/12/10 10:10:58;;;;;;;3.50;2.80;;;;;;;-3.19;79.87;98805.72;105912;1254;74288;-27
2023/12/10 10:13:25;;;;;;;4.10;2.40;;;;;;;-2.74;78.25;98800.81;105829;1254;71171;-27
2023/12/10 10:15:53;;;;;;;3.70;2.30;;;;;;;-2.72;77.75;98801.27;105637;1254;61112;-27
2023/12/10 10:18:20;;;;;;;6.20;2.70;;;;;;;-2.85;78.16;98801.64;105774;1252;61065;-27
2023/12/10 10:20:48;;;;;;;5.90;3.30;;;;;;;-2.97;78.44;98794.89;103155;1252;3652818;-27
2023/12/10 10:23:15;;;;;;;3.90;2.60;;;;;;;-3.16;78.87;98791.20;105724;1254;61157;-27
2023/12/10 10:25:42;;;;;;;3.50;2.50;;;;;;;-3.31;79.72;98789.23;105694;1258;61185;-27
2023/12/10 10:28:13;;;;;;;3.40;2.60;;;;;;;-2.72;78.62;98798.73;105788;1256;61174;-27
2023/12/10 10:30:41;;;;;;;6.70;3.10;;;;;;;-2.39;76.92;98799.53;105741;1256;61055;-27
2023/12/10 10:33:08;;;;;;;5.40;3.30;;;;;;;-2.31;76.49;98808.81;105796;1254;73855;-28
2023/12/10 10:35:35;;;;;;;3.60;2.40;;;;;;;-2.43;76.54;98805.45;105717;1254;74301;-28
2023/12/10 10:38:06;;;;;;;3.20;2.80;;;;;;;-2.67;77.19;98806.36;105842;1254;72623;-27
2023/12/10 10:40:33;;;;;;;8.50;4.10;;;;;;;-2.93;78.06;98810.05;105828;1254;61175;-27
2023/12/10 10:43:00;;;;;;;5.30;2.80;;;;;;;-3.16;79.11;98821.08;105793;1257;61148;-27
2023/12/10 10:45:27;;;;;;;4.10;3.00;;;;;;;-2.79;78.72;98833.95;105790;1254;73781;-27
2023/12/10 10:47:55;;;;;;;6.90;3.30;;;;;;;-2.58;77.72;98836.68;105652;1254;74770;-27
2023/12/10 10:50:25;;;;;;;6.00;3.00;;;;;;;-2.70;77.52;98835.36;105584;1254;72421;-27
2023/12/10 10:52:53;;;;;;;4.40;2.80;;;;;;;-2.83;77.79;98830.80;105813;1254;61120;-27
2023/12/10 10:55:20;;;;;;;6.70;3.60;;;;;;;-3.01;78.44;98829.98;105624;1258;61067;-27
2023/12/10 10:57:48;;;;;;;6.40;3.10;;;;;;;-3.22;79.37;98828.03;105635;1254;73654;-27
2023/12/10 11:00:38;;;;;;;5.70;3.20;;;;;;;-3.12;79.74;98829.80;105669;1254;74204;-27
2023/12/10 11:03:07;;;;;;;3.30;2.10;;;;;;;-2.45;77.93;98829.15;105710;1254;72534;-28
2023/12/10 11:05:34;;;;;;;6.20;3.60;;;;;;;-2.29;76.79;98831.38;105408;1253;61122;-27
2023/12/10 11:08:08;;;;;;;5.20;3.00;;;;;;;-2.36;76.94;98832.61;105715;1256;61163;-27
2023/12/10 11:10:35;;;;;;;7.60;3.40;;;;;;;-2.46;77.08;98832.39;105674;1254;72749;-27
2023/12/10 11:13:02;;;;;;;5.20;3.30;;;;;;;-2.68;77.78;98835.13;105495;1254;74796;-27
2023/12/10 11:15:30;;;;;;;5.70;3.60;;;;;;;-2.93;78.56;98829.57;105856;1254;72659;-27
2023/12/10 11:17:59;;;;;;;5.80;2.60;;;;;;;-3.02;79.23;98829.15;105685;1256;61202;-27
2023/12/10 11:20:40;;;;;;;7.70;3.60;;;;;;;-2.30;78.17;98824.23;105573;1252;61156;-27
2023/12/10 11:23:14;;;;;;;6.20;3.20;;;;;;;-1.96;76.24;98821.29;105708;1254;73653;-27
2023/12/10 11:25:42;;;;;;;7.20;4.10;;;;;;;-2.06;75.98;98815.64;105712;1260;75272;-27